Time;durP1;ratioP1;P1;durP2;ratioP2;P2;SDS_P1;SDS_P2;PMS_P1;PMS_P2;Temp;Humidity;BMP_temperature;BMP_pressure;BME280_temperature;BME280_humidity;BME280_pressure;Samples;Min_cycle;Max_cycle;Signal;HPM_P1;HPM_P2
2022/02/14 00:02:19;;;;;;;6.90;4.53;;;23.10;34.40;;;;;;6101495;28;80606;-64
2022/02/14 00:05:20;;;;;;;8.50;4.53;;;23.10;34.50;;;;;;6107630;28;80495;-65
2022/02/14 00:08:21;;;;;;;10.02;5.13;;;23.10;34.60;;;;;;6107939;28;81730;-64
2022/02/14 00:11:24;;;;;;;8.00;4.70;;;23.10;34.50;;;;;;6099715;28;80652;-64
2022/02/14 00:14:26;;;;;;;8.02;4.95;;;23.00;34.50;;;;;;6124429;28;81054;-64
2022/02/14 00:17:27;;;;;;;9.30;5.32;;;23.00;34.50;;;;;;6115391;28;80872;-63
2022/02/14 00:20:29;;;;;;;11.63;5.03;;;23.00;34.60;;;;;;6124028;28;81371;-63
2022/02/14 00:23:30;;;;;;;7.60;5.15;;;23.00;34.70;;;;;;6099167;28;81833;-63
2022/02/14 00:26:31;;;;;;;9.18;5.32;;;23.00;34.90;;;;;;6116613;28;81371;-63
2022/02/14 00:29:32;;;;;;;9.85;5.38;;;23.00;34.80;;;;;;6127810;28;82269;-63
2022/02/14 00:32:34;;;;;;;8.27;5.82;;;23.00;34.60;;;;;;6107087;28;82151;-63
2022/02/14 00:35:36;;;;;;;13.43;7.00;;;23.00;34.70;;;;;;6111633;28;83040;-63
2022/02/14 00:38:37;;;;;;;12.23;7.00;;;23.00;34.60;;;;;;6108505;28;81417;-63
2022/02/14 00:41:37;;;;;;;13.65;7.20;;;23.00;34.80;;;;;;6107425;28;81641;-63
2022/02/14 00:44:38;;;;;;;13.70;7.03;;;23.00;34.90;;;;;;6127317;28;81483;-64
2022/02/14 00:47:38;;;;;;;14.00;7.45;;;23.00;35.00;;;;;;6106316;28;81017;-65
2022/02/14 00:50:39;;;;;;;13.73;7.88;;;23.00;35.00;;;;;;6107099;28;82644;-64
2022/02/14 00:53:40;;;;;;;14.50;7.53;;;23.00;35.00;;;;;;6112257;28;80539;-64
2022/02/14 00:56:41;;;;;;;17.05;8.68;;;23.00;35.00;;;;;;6097383;28;81842;-65
2022/02/14 00:59:41;;;;;;;16.33;8.68;;;23.00;35.00;;;;;;6097713;28;82976;-65
2022/02/14 01:02:42;;;;;;;16.55;8.90;;;23.00;35.20;;;;;;6102663;28;80904;-65
2022/02/14 01:05:42;;;;;;;17.98;9.20;;;23.00;35.10;;;;;;6098468;28;80422;-65
2022/02/14 01:08:43;;;;;;;18.02;9.52;;;22.90;35.00;;;;;;6104601;28;81219;-65
2022/02/14 01:11:43;;;;;;;19.80;9.90;;;22.90;34.90;;;;;;6104444;28;81018;-65
2022/02/14 01:14:44;;;;;;;20.25;10.35;;;22.90;34.80;;;;;;6106668;28;81006;-66
2022/02/14 01:17:44;;;;;;;20.52;10.77;;;22.90;34.60;;;;;;6101981;28;83280;-65
2022/02/14 01:20:45;;;;;;;22.58;10.80;;;22.90;34.50;;;;;;6100629;28;83396;-65
2022/02/14 01:23:46;;;;;;;24.15;11.85;;;22.90;34.50;;;;;;6100820;28;83348;-64
2022/02/14 01:26:46;;;;;;;25.15;12.00;;;22.90;34.40;;;;;;6101599;28;83287;-64
2022/02/14 01:29:47;;;;;;;28.05;12.95;;;22.90;34.20;;;;;;6102222;28;84243;-64
2022/02/14 01:32:47;;;;;;;25.13;12.75;;;22.90;33.90;;;;;;6098241;28;82972;-66
2022/02/14 01:35:48;;;;;;;21.27;10.75;;;22.90;33.70;;;;;;6102393;28;83374;-65
2022/02/14 01:38:48;;;;;;;22.50;11.75;;;22.90;33.90;;;;;;6098125;28;83100;-65
2022/02/14 01:41:49;;;;;;;19.75;10.95;;;22.80;33.70;;;;;;6096965;28;84692;-64
2022/02/14 01:44:49;;;;;;;17.88;10.15;;;22.90;34.10;;;;;;6097978;28;83270;-65
2022/02/14 01:47:50;;;;;;;22.98;11.23;;;22.90;33.50;;;;;;6098647;28;83157;-65
2022/02/14 01:50:50;;;;;;;19.92;10.85;;;22.90;33.50;;;;;;6099771;28;83255;-64
2022/02/14 01:53:51;;;;;;;19.77;10.30;;;22.90;33.50;;;;;;6109944;28;82821;-65
2022/02/14 01:56:52;;;;;;;19.50;9.95;;;22.90;33.20;;;;;;6100354;28;83937;-64
2022/02/14 01:59:52;;;;;;;15.98;9.48;;;22.80;33.20;;;;;;6124576;28;82848;-64
2022/02/14 02:02:53;;;;;;;16.05;9.38;;;22.80;33.20;;;;;;6102528;28;80979;-65
2022/02/14 02:05:53;;;;;;;19.13;9.45;;;22.80;33.20;;;;;;6126618;28;81621;-66
2022/02/14 02:08:54;;;;;;;18.00;9.60;;;22.80;33.40;;;;;;6110629;28;81807;-66
2022/02/14 02:15:13;;;;;;;17.40;9.05;;;22.80;33.80;;;;;;6112913;28;80906;-66
2022/02/14 02:18:14;;;;;;;14.20;8.30;;;22.80;34.00;;;;;;6128177;28;80634;-65
2022/02/14 02:21:14;;;;;;;20.23;9.88;;;22.80;33.70;;;;;;6113667;28;80527;-66
2022/02/14 02:24:17;;;;;;;16.92;8.93;;;22.80;33.40;;;;;;6101537;28;80900;-64
2022/02/14 02:27:18;;;;;;;16.80;9.25;;;22.80;33.80;;;;;;6110243;28;80933;-65
2022/02/14 02:30:18;;;;;;;15.57;8.52;;;22.80;33.90;;;;;;6110038;28;80850;-65
2022/02/14 02:33:19;;;;;;;16.33;8.52;;;22.80;34.10;;;;;;6101253;28;80353;-65
2022/02/14 02:36:19;;;;;;;15.13;8.60;;;22.80;34.20;;;;;;6117225;28;81991;-66
2022/02/14 02:39:20;;;;;;;13.60;8.32;;;22.80;34.20;;;;;;6105342;28;80737;-65
2022/02/14 02:42:20;;;;;;;14.45;8.68;;;22.80;34.30;;;;;;6092731;28;81381;-64
2022/02/14 02:45:21;;;;;;;14.68;8.55;;;22.80;34.50;;;;;;6102308;28;80759;-65
2022/02/14 02:48:21;;;;;;;17.15;8.77;;;22.80;35.20;;;;;;6127779;28;80847;-64
2022/02/14 02:51:22;;;;;;;16.13;8.38;;;22.80;34.60;;;;;;6133002;28;80391;-65
2022/02/14 02:54:22;;;;;;;15.05;8.30;;;22.80;34.70;;;;;;6120681;28;82172;-65
2022/02/14 02:57:23;;;;;;;12.88;7.35;;;22.90;34.90;;;;;;6118036;28;80861;-64
2022/02/14 03:00:24;;;;;;;9.60;6.22;;;22.90;35.60;;;;;;6118312;28;81772;-64
2022/02/14 03:03:24;;;;;;;8.63;5.95;;;22.90;35.60;;;;;;6114123;28;86796;-64
2022/02/14 03:06:25;;;;;;;12.27;6.65;;;22.90;36.30;;;;;;6112110;28;80355;-64
2022/02/14 03:09:25;;;;;;;13.98;7.63;;;22.90;36.20;;;;;;6110637;28;81680;-64
2022/02/14 03:12:26;;;;;;;11.77;6.60;;;22.90;36.60;;;;;;6104356;28;80248;-65
2022/02/14 03:15:26;;;;;;;11.80;6.47;;;23.00;36.70;;;;;;6099000;28;81315;-66
2022/02/14 03:18:27;;;;;;;13.88;7.22;;;23.00;36.10;;;;;;6107590;28;80952;-65
2022/02/14 03:21:28;;;;;;;13.32;7.78;;;23.00;36.30;;;;;;6097367;28;80360;-65
2022/02/14 03:24:29;;;;;;;13.18;7.45;;;23.00;36.40;;;;;;6107677;28;80634;-65
2022/02/14 03:27:29;;;;;;;12.25;7.50;;;23.00;36.60;;;;;;6100782;28;80465;-65
2022/02/14 03:30:30;;;;;;;15.30;8.30;;;23.00;36.60;;;;;;6112940;28;80791;-65
2022/02/14 03:33:30;;;;;;;12.38;7.32;;;23.00;36.30;;;;;;6129716;28;80404;-63
2022/02/14 03:36:31;;;;;;;18.33;9.27;;;23.00;36.30;;;;;;6130771;28;80635;-66
2022/02/14 03:39:31;;;;;;;14.32;8.38;;;23.00;36.10;;;;;;6107072;28;80689;-65
2022/02/14 03:42:32;;;;;;;16.67;9.07;;;23.00;35.90;;;;;;6098519;28;81925;-66
2022/02/14 03:45:32;;;;;;;13.60;8.07;;;23.00;36.10;;;;;;6123600;28;80700;-66
2022/02/14 03:48:33;;;;;;;15.60;8.55;;;22.90;35.80;;;;;;6116258;28;81237;-66
2022/02/14 03:51:33;;;;;;;16.50;8.90;;;22.90;36.10;;;;;;6114769;28;80599;-66
2022/02/14 03:54:34;;;;;;;14.70;8.40;;;23.00;36.20;;;;;;6116381;28;80849;-66
2022/02/14 03:57:35;;;;;;;16.52;8.68;;;22.90;36.10;;;;;;6117712;28;80406;-66
2022/02/14 04:00:35;;;;;;;15.82;9.27;;;22.90;36.20;;;;;;6128681;28;80370;-66
2022/02/14 04:03:36;;;;;;;14.02;8.65;;;22.90;35.90;;;;;;6105910;28;80568;-66
2022/02/14 04:06:36;;;;;;;17.88;9.52;;;22.90;35.70;;;;;;6108803;28;81747;-65
2022/02/14 04:09:37;;;;;;;18.13;10.25;;;22.90;35.70;;;;;;6107558;28;80673;-66
2022/02/14 04:12:37;;;;;;;14.77;8.25;;;22.90;35.60;;;;;;6107808;28;82771;-64
2022/02/14 04:15:38;;;;;;;15.43;9.25;;;22.90;35.60;;;;;;6115999;28;82903;-60
2022/02/14 04:18:39;;;;;;;16.67;9.23;;;23.00;35.70;;;;;;6128115;28;80894;-64
2022/02/14 04:21:39;;;;;;;17.77;10.27;;;23.00;35.00;;;;;;6116445;28;83443;-64
2022/02/14 04:24:40;;;;;;;20.55;11.77;;;23.10;34.50;;;;;;6120714;28;83775;-64
2022/02/14 04:27:41;;;;;;;24.35;12.05;;;23.10;34.20;;;;;;6108528;28;82966;-63
2022/02/14 04:30:41;;;;;;;19.30;10.65;;;23.20;34.50;;;;;;6094200;28;85175;-63
2022/02/14 04:33:42;;;;;;;18.95;10.32;;;23.20;33.40;;;;;;6096830;28;83451;-64
2022/02/14 04:36:42;;;;;;;21.08;10.65;;;23.30;33.10;;;;;;6091036;28;84288;-64
2022/02/14 04:39:43;;;;;;;20.38;11.40;;;23.30;32.80;;;;;;6108581;28;84138;-64
2022/02/14 04:42:43;;;;;;;21.80;11.27;;;23.40;32.60;;;;;;6105045;28;83099;-63
2022/02/14 04:45:44;;;;;;;21.33;11.20;;;23.40;32.30;;;;;;6088835;28;83731;-62
2022/02/14 04:48:45;;;;;;;23.00;12.05;;;23.50;32.20;;;;;;6104761;28;82775;-63
2022/02/14 04:51:45;;;;;;;22.90;11.23;;;23.50;32.10;;;;;;6100073;28;83100;-62
2022/02/14 04:54:46;;;;;;;19.05;10.45;;;23.60;32.00;;;;;;6097582;28;84598;-62
2022/02/14 04:57:46;;;;;;;21.75;11.65;;;23.60;31.90;;;;;;6105948;28;83170;-64
2022/02/14 05:00:47;;;;;;;22.02;12.02;;;23.60;31.80;;;;;;6117763;28;83013;-64
2022/02/14 05:03:47;;;;;;;19.10;10.73;;;23.60;31.50;;;;;;6115546;28;83261;-63
2022/02/14 05:06:48;;;;;;;19.65;11.23;;;23.70;31.60;;;;;;6123349;28;82978;-63
2022/02/14 05:09:48;;;;;;;25.33;11.77;;;23.70;31.40;;;;;;6128890;28;84259;-63
2022/02/14 05:12:49;;;;;;;19.63;11.32;;;23.70;31.30;;;;;;6106088;28;83675;-64
2022/02/14 05:15:49;;;;;;;22.65;11.93;;;23.80;31.30;;;;;;6098159;28;84994;-64
2022/02/14 05:18:50;;;;;;;21.80;12.15;;;23.80;31.20;;;;;;6091912;28;84491;-63
2022/02/14 05:21:51;;;;;;;21.38;11.10;;;23.70;31.10;;;;;;6104242;28;84061;-66
2022/02/14 05:24:51;;;;;;;22.45;11.27;;;23.80;31.00;;;;;;6090572;28;82902;-66
2022/02/14 05:27:52;;;;;;;22.05;12.10;;;23.80;31.10;;;;;;6119773;28;84222;-66
2022/02/14 05:30:52;;;;;;;22.05;11.48;;;23.80;31.20;;;;;;6100319;28;83453;-66
2022/02/14 05:33:53;;;;;;;23.27;11.95;;;23.80;31.40;;;;;;6101565;28;83466;-65
2022/02/14 05:36:53;;;;;;;20.98;11.52;;;23.80;31.40;;;;;;6101652;28;82984;-68
2022/02/14 05:39:54;;;;;;;20.80;11.30;;;23.80;31.40;;;;;;6123520;28;83097;-65
2022/02/14 05:42:54;;;;;;;25.90;12.02;;;23.70;31.50;;;;;;6125724;28;83871;-64
2022/02/14 05:45:55;;;;;;;19.20;10.82;;;23.70;31.40;;;;;;6099665;28;83220;-65
2022/02/14 05:48:55;;;;;;;21.77;11.85;;;23.70;31.60;;;;;;6108268;28;83518;-65
2022/02/14 05:51:56;;;;;;;22.55;11.05;;;23.70;31.80;;;;;;6102978;28;83307;-67
2022/02/14 05:54:57;;;;;;;20.85;11.60;;;23.70;32.10;;;;;;6118386;28;83120;-65
2022/02/14 05:57:57;;;;;;;21.92;11.95;;;23.70;31.90;;;;;;6108064;28;84251;-64
2022/02/14 06:00:58;;;;;;;19.10;10.63;;;23.70;31.90;;;;;;6114218;28;83019;-62
2022/02/14 06:03:59;;;;;;;21.63;10.93;;;23.70;32.60;;;;;;6105172;28;84026;-64
2022/02/14 06:06:59;;;;;;;22.63;10.95;;;23.60;32.80;;;;;;6121793;28;82869;-64
2022/02/14 06:10:00;;;;;;;19.83;10.02;;;23.60;32.80;;;;;;6123822;28;83504;-64
2022/02/14 06:13:00;;;;;;;23.73;12.00;;;23.60;33.10;;;;;;6119578;28;83461;-64
2022/02/14 06:16:01;;;;;;;23.75;9.60;;;23.60;33.50;;;;;;6121477;28;82875;-65
2022/02/14 06:19:01;;;;;;;23.77;10.52;;;23.60;33.70;;;;;;6127477;28;81907;-66
2022/02/14 06:22:02;;;;;;;19.88;10.38;;;23.50;33.80;;;;;;6127463;28;83061;-69
2022/02/14 06:25:02;;;;;;;15.90;9.68;;;23.50;33.60;;;;;;6109750;28;83092;-68
2022/02/14 06:28:03;;;;;;;20.25;10.38;;;23.50;33.20;;;;;;6095256;28;83528;-68
2022/02/14 06:31:04;;;;;;;17.27;9.57;;;23.50;33.20;;;;;;6108915;28;83083;-65
2022/02/14 06:34:04;;;;;;;20.55;9.38;;;23.50;33.60;;;;;;6133637;28;82986;-64
2022/02/14 06:37:05;;;;;;;17.25;8.90;;;23.50;33.50;;;;;;6113009;28;80810;-65
2022/02/14 06:40:05;;;;;;;12.63;8.57;;;23.50;33.90;;;;;;6130560;28;81488;-61
2022/02/14 06:43:06;;;;;;;19.73;9.57;;;23.60;34.00;;;;;;6126837;28;80656;-62
2022/02/14 06:46:07;;;;;;;16.95;8.30;;;23.60;33.60;;;;;;6113380;28;81525;-61
2022/02/14 06:49:07;;;;;;;13.70;7.75;;;23.60;33.60;;;;;;6113523;28;81700;-64
2022/02/14 06:52:08;;;;;;;10.90;6.50;;;23.60;33.90;;;;;;6112734;28;81422;-60
2022/02/14 06:55:08;;;;;;;11.93;6.07;;;23.30;35.00;;;;;;6113447;28;81656;-60
2022/02/14 06:58:09;;;;;;;9.27;5.55;;;23.20;36.20;;;;;;6107110;28;80245;-61
2022/02/14 07:01:09;;;;;;;7.65;4.32;;;23.10;37.20;;;;;;6103656;28;80463;-64
2022/02/14 07:04:10;;;;;;;8.30;5.03;;;23.10;38.00;;;;;;6123216;28;81360;-65
2022/02/14 07:07:11;;;;;;;8.70;4.95;;;23.10;38.70;;;;;;6109749;28;80332;-62
2022/02/14 07:10:12;;;;;;;7.82;4.35;;;23.10;39.20;;;;;;6106880;28;80737;-63
2022/02/14 07:13:13;;;;;;;7.75;4.93;;;23.10;39.60;;;;;;6127312;28;81374;-62
2022/02/14 07:16:14;;;;;;;12.13;4.88;;;23.10;39.90;;;;;;6112842;28;81381;-65
2022/02/14 07:19:14;;;;;;;6.13;4.55;;;23.10;40.80;;;;;;6112303;28;81858;-65
2022/02/14 07:22:15;;;;;;;6.93;4.55;;;23.10;40.70;;;;;;6126145;28;81290;-66
2022/02/14 07:25:15;;;;;;;7.28;4.82;;;23.10;41.00;;;;;;6129136;28;81431;-65
2022/02/14 07:28:16;;;;;;;5.40;3.78;;;23.10;41.00;;;;;;6108761;28;80412;-65
2022/02/14 07:31:17;;;;;;;6.13;3.97;;;23.10;41.90;;;;;;6103779;28;80402;-65
2022/02/14 07:34:17;;;;;;;7.10;4.38;;;23.10;41.30;;;;;;6105495;28;80908;-66
2022/02/14 07:37:18;;;;;;;5.57;3.72;;;23.10;41.50;;;;;;6103100;28;81992;-62
2022/02/14 07:40:18;;;;;;;6.90;4.22;;;23.10;41.50;;;;;;6106898;28;81215;-61
2022/02/14 07:43:19;;;;;;;5.00;3.78;;;23.10;42.00;;;;;;6097788;28;80492;-64
2022/02/14 07:46:19;;;;;;;4.55;3.50;;;23.10;42.40;;;;;;6108756;28;81509;-67
2022/02/14 07:49:20;;;;;;;4.20;2.83;;;23.20;42.40;;;;;;6107774;28;86263;-62
2022/02/14 07:52:20;;;;;;;4.57;3.20;;;23.30;42.90;;;;;;6104660;28;82178;-63
2022/02/14 07:55:21;;;;;;;4.75;3.17;;;23.50;42.50;;;;;;6104461;28;80483;-64
2022/02/14 07:58:22;;;;;;;7.40;4.05;;;23.70;41.50;;;;;;6106349;28;80452;-64
2022/02/14 08:01:22;;;;;;;6.65;3.92;;;23.80;41.00;;;;;;6110288;28;80470;-64
2022/02/14 08:04:23;;;;;;;4.57;3.38;;;23.80;40.60;;;;;;6107244;28;81243;-64
2022/02/14 08:07:23;;;;;;;5.63;3.88;;;23.90;40.50;;;;;;6109543;28;81773;-65
2022/02/14 08:10:24;;;;;;;6.93;4.43;;;24.00;39.70;;;;;;6119072;28;81420;-64
2022/02/14 08:13:24;;;;;;;7.00;3.97;;;24.00;40.00;;;;;;6098511;28;82385;-63
2022/02/14 08:16:25;;;;;;;5.05;3.75;;;24.10;39.90;;;;;;6107286;28;80739;-63
2022/02/14 08:19:25;;;;;;;4.88;3.60;;;24.10;39.50;;;;;;6102761;28;80595;-65
2022/02/14 08:22:27;;;;;;;5.28;3.58;;;24.20;38.80;;;;;;6103537;28;82105;-64
2022/02/14 08:25:27;;;;;;;6.13;3.67;;;24.30;39.10;;;;;;6107185;28;82804;-63
2022/02/14 08:28:28;;;;;;;7.03;4.10;;;24.30;38.10;;;;;;6108931;28;81017;-63
2022/02/14 08:31:28;;;;;;;5.95;4.75;;;24.30;37.30;;;;;;6110380;28;83193;-63
2022/02/14 08:34:30;;;;;;;6.40;4.60;;;24.30;37.30;;;;;;6115647;28;81555;-62
2022/02/14 08:37:30;;;;;;;10.15;4.40;;;24.40;37.40;;;;;;6106045;28;80903;-65
2022/02/14 08:40:31;;;;;;;7.00;4.45;;;24.40;37.00;;;;;;6109638;28;80145;-63
2022/02/14 08:43:31;;;;;;;6.80;4.13;;;24.40;36.70;;;;;;6105809;28;82191;-61
2022/02/14 08:46:33;;;;;;;7.25;4.47;;;24.50;36.90;;;;;;6120016;28;80560;-63
2022/02/14 08:49:35;;;;;;;6.57;4.68;;;24.50;36.60;;;;;;6112416;28;81407;-61
2022/02/14 08:52:36;;;;;;;6.22;3.90;;;24.50;36.20;;;;;;6110124;28;81208;-59
2022/02/14 08:55:38;;;;;;;11.90;4.90;;;24.60;36.40;;;;;;6109415;28;81479;-60
2022/02/14 08:58:42;;;;;;;10.10;4.93;;;24.60;36.60;;;;;;6096812;28;81512;-64
2022/02/14 09:01:42;;;;;;;8.10;4.57;;;24.60;36.30;;;;;;6110111;28;80354;-63
2022/02/14 09:04:43;;;;;;;9.63;4.50;;;24.70;36.70;;;;;;6105361;28;81365;-64
2022/02/14 09:07:43;;;;;;;12.05;4.70;;;24.70;37.00;;;;;;6110031;28;81326;-65
2022/02/14 09:10:44;;;;;;;5.43;4.35;;;24.80;36.70;;;;;;6095861;28;80749;-64
2022/02/14 09:13:45;;;;;;;5.72;4.20;;;24.90;37.10;;;;;;6110295;28;80103;-60
2022/02/14 09:16:47;;;;;;;5.35;3.88;;;24.90;36.90;;;;;;6097175;28;81149;-60
2022/02/14 09:19:49;;;;;;;8.05;4.88;;;24.90;36.80;;;;;;6108113;28;81235;-64
2022/02/14 09:22:50;;;;;;;8.73;4.63;;;25.00;37.00;;;;;;6101753;28;80791;-64
2022/02/14 09:25:50;;;;;;;6.15;3.95;;;25.10;36.80;;;;;;6106125;28;80617;-64
2022/02/14 09:28:51;;;;;;;5.70;3.90;;;25.10;37.00;;;;;;6104647;28;80696;-64
2022/02/14 09:31:53;;;;;;;4.82;3.72;;;25.10;36.90;;;;;;6108915;28;80904;-63
2022/02/14 09:34:54;;;;;;;5.80;4.35;;;25.20;37.30;;;;;;6105084;28;80550;-64
2022/02/14 09:37:54;;;;;;;4.80;3.65;;;25.30;37.50;;;;;;6109200;28;80449;-64
2022/02/14 09:40:55;;;;;;;7.10;3.90;;;25.30;37.40;;;;;;6104000;28;81132;-65
2022/02/14 09:43:55;;;;;;;5.32;4.22;;;25.30;37.20;;;;;;6105919;28;80806;-63
2022/02/14 09:46:56;;;;;;;5.75;4.03;;;25.40;37.20;;;;;;6105184;28;80788;-63
2022/02/14 09:49:56;;;;;;;6.05;3.92;;;25.40;37.20;;;;;;6108671;28;80594;-65
2022/02/14 09:52:57;;;;;;;4.68;3.88;;;25.50;37.40;;;;;;6103206;28;81979;-64
2022/02/14 09:55:58;;;;;;;7.20;4.68;;;25.50;37.30;;;;;;6099071;28;80124;-63
2022/02/14 09:58:59;;;;;;;4.57;3.55;;;25.50;37.40;;;;;;6106070;28;81530;-65
2022/02/14 10:02:02;;;;;;;4.47;3.72;;;25.60;37.20;;;;;;6099455;28;80633;-64
2022/02/14 10:05:03;;;;;;;4.50;3.67;;;25.70;37.60;;;;;;6121182;28;80692;-65
2022/02/14 10:08:03;;;;;;;7.45;5.00;;;25.70;37.20;;;;;;6107011;28;81818;-65
2022/02/14 10:11:04;;;;;;;5.60;4.63;;;25.50;35.70;;;;;;6097881;28;81096;-65
2022/02/14 10:14:04;;;;;;;9.98;5.78;;;25.50;34.70;;;;;;6126967;28;87183;-63
2022/02/14 10:17:05;;;;;;;9.05;5.47;;;25.50;33.10;;;;;;6104335;28;82014;-64
2022/02/14 10:20:05;;;;;;;10.85;6.13;;;25.40;32.50;;;;;;6094601;28;80443;-64
2022/02/14 10:23:07;;;;;;;9.60;5.82;;;25.30;31.70;;;;;;6100374;28;81676;-63
2022/02/14 10:26:07;;;;;;;11.02;6.47;;;25.30;30.80;;;;;;6103218;28;80347;-64
2022/02/14 10:29:08;;;;;;;15.32;6.38;;;25.20;31.40;;;;;;6111429;28;80672;-61
2022/02/14 10:32:09;;;;;;;9.80;6.43;;;25.20;31.40;;;;;;6115118;28;80810;-60
2022/02/14 10:35:12;;;;;;;7.95;6.03;;;25.20;31.90;;;;;;6120950;28;81228;-62
2022/02/14 10:38:13;;;;;;;14.38;6.70;;;25.20;30.90;;;;;;6126561;28;80291;-62
2022/02/14 10:41:13;;;;;;;9.75;6.88;;;25.20;30.70;;;;;;6106985;28;80390;-61
2022/02/14 10:44:14;;;;;;;10.85;6.22;;;25.10;30.00;;;;;;6104517;28;80991;-61
2022/02/14 10:47:19;;;;;;;8.38;6.05;;;24.90;29.40;;;;;;6096183;28;81120;-62
2022/02/14 10:50:19;;;;;;;9.02;5.40;;;24.90;29.70;;;;;;6096900;28;80533;-61
2022/02/14 10:53:20;;;;;;;12.38;6.53;;;24.90;29.70;;;;;;6089169;28;81864;-61
2022/02/14 10:56:22;;;;;;;12.15;6.43;;;24.90;29.30;;;;;;6099006;28;87003;-62
2022/02/14 10:59:23;;;;;;;10.68;5.43;;;24.80;29.20;;;;;;6110161;28;80866;-62
2022/02/14 11:02:23;;;;;;;6.78;4.78;;;24.80;31.00;;;;;;6103073;28;80501;-62
2022/02/14 11:05:24;;;;;;;7.03;4.50;;;25.00;32.60;;;;;;6106225;28;82069;-62
2022/02/14 11:08:25;;;;;;;5.13;4.00;;;25.10;33.60;;;;;;6095180;28;83651;-63
2022/02/14 11:11:25;;;;;;;5.40;4.22;;;25.20;34.50;;;;;;6102917;28;80537;-61
2022/02/14 11:14:26;;;;;;;6.55;3.55;;;25.30;35.20;;;;;;6104823;28;81608;-60
2022/02/14 11:17:27;;;;;;;7.60;3.40;;;25.50;35.50;;;;;;6100163;28;82101;-61
2022/02/14 11:20:28;;;;;;;4.22;3.47;;;25.50;36.30;;;;;;6126611;28;81322;-61
2022/02/14 11:23:30;;;;;;;3.92;2.90;;;25.60;36.50;;;;;;6108576;28;80584;-61
2022/02/14 11:26:32;;;;;;;5.65;2.97;;;25.60;37.00;;;;;;6130080;28;81634;-61
2022/02/14 11:29:33;;;;;;;4.18;3.05;;;25.70;37.60;;;;;;6112342;28;80345;-60
2022/02/14 11:32:39;;;;;;;3.88;3.10;;;25.80;38.10;;;;;;6125796;28;80453;-60
2022/02/14 11:35:39;;;;;;;4.32;3.20;;;25.80;38.20;;;;;;6130680;28;80206;-61
2022/02/14 11:38:40;;;;;;;6.03;2.90;;;25.90;39.10;;;;;;6110473;28;80542;-63
2022/02/14 11:41:41;;;;;;;8.73;3.22;;;26.00;39.90;;;;;;6113187;28;80657;-62
2022/02/14 11:44:42;;;;;;;4.38;3.15;;;26.00;40.20;;;;;;6101181;28;81939;-62
2022/02/14 11:47:43;;;;;;;5.35;3.25;;;26.00;40.30;;;;;;6110686;28;81195;-60
2022/02/14 11:50:43;;;;;;;3.13;2.65;;;26.10;40.50;;;;;;6113219;28;80732;-62
2022/02/14 11:53:45;;;;;;;5.07;2.85;;;26.10;40.60;;;;;;6094393;28;81663;-61
2022/02/14 11:56:45;;;;;;;7.95;3.03;;;26.20;41.00;;;;;;6102594;28;80551;-62
2022/02/14 11:59:46;;;;;;;5.63;2.67;;;26.20;40.90;;;;;;6102844;28;80878;-63
2022/02/14 12:02:46;;;;;;;3.90;2.78;;;26.20;41.30;;;;;;6103696;28;80930;-62
2022/02/14 12:05:47;;;;;;;3.83;2.50;;;26.20;41.30;;;;;;6103320;28;82782;-62
2022/02/14 12:08:47;;;;;;;5.05;2.80;;;26.20;41.10;;;;;;6102284;28;82682;-62
2022/02/14 12:11:48;;;;;;;5.75;2.83;;;26.20;41.10;;;;;;6095053;28;83165;-63
2022/02/14 12:14:48;;;;;;;7.35;3.00;;;26.30;41.10;;;;;;6103058;28;80715;-62
2022/02/14 12:21:08;;;;;;;4.20;2.60;;;26.30;41.10;;;;;;6105997;28;80629;-61
2022/02/14 12:24:09;;;;;;;2.70;2.50;;;26.30;41.00;;;;;;6109252;28;80659;-62
2022/02/14 12:27:09;;;;;;;5.10;2.47;;;26.30;41.60;;;;;;6118904;28;80312;-60
2022/02/14 12:30:10;;;;;;;5.00;3.03;;;26.30;41.10;;;;;;6110150;28;83476;-62
2022/02/14 12:33:11;;;;;;;4.93;3.58;;;26.30;41.10;;;;;;6112042;28;80701;-61
2022/02/14 12:36:11;;;;;;;9.38;4.63;;;26.30;41.20;;;;;;6125770;28;80240;-62
2022/02/14 12:39:12;;;;;;;9.75;4.30;;;26.30;41.30;;;;;;6111692;28;81068;-62
2022/02/14 12:42:13;;;;;;;8.07;4.68;;;26.30;41.60;;;;;;6128957;28;81437;-61
2022/02/14 12:45:13;;;;;;;12.20;5.40;;;26.40;41.80;;;;;;6106923;28;81304;-62
2022/02/14 12:48:14;;;;;;;8.20;4.43;;;26.30;41.90;;;;;;6128463;28;80660;-61
2022/02/14 12:51:14;;;;;;;9.65;4.65;;;26.30;42.00;;;;;;6113774;28;81869;-63
2022/02/14 12:54:15;;;;;;;7.90;4.32;;;26.40;42.20;;;;;;6110593;28;81043;-62
2022/02/14 12:57:15;;;;;;;5.57;4.03;;;26.40;42.30;;;;;;6119720;28;80460;-62
2022/02/14 13:00:16;;;;;;;8.68;4.38;;;26.40;42.60;;;;;;6112903;28;80367;-62
2022/02/14 13:03:17;;;;;;;7.30;4.30;;;26.40;42.70;;;;;;6113163;28;80519;-63
2022/02/14 13:06:17;;;;;;;13.40;5.28;;;26.40;42.80;;;;;;6110352;28;80344;-61
2022/02/14 13:09:18;;;;;;;9.85;4.47;;;26.40;43.10;;;;;;6108770;28;80437;-63
2022/02/14 13:12:18;;;;;;;10.75;4.60;;;26.40;43.20;;;;;;6101363;28;82258;-62
2022/02/14 13:15:19;;;;;;;7.35;4.00;;;26.40;43.30;;;;;;6097634;28;80831;-64
2022/02/14 13:18:19;;;;;;;7.63;4.25;;;26.40;43.40;;;;;;6094821;28;80497;-63
2022/02/14 13:21:20;;;;;;;7.35;4.07;;;26.40;43.60;;;;;;6115529;28;80536;-64
2022/02/14 13:24:20;;;;;;;6.20;4.10;;;26.40;43.60;;;;;;6113930;28;81407;-61
2022/02/14 13:27:21;;;;;;;7.18;4.45;;;26.40;43.80;;;;;;6106262;28;81612;-62
2022/02/14 13:30:21;;;;;;;7.63;4.40;;;26.40;43.70;;;;;;6109175;28;80491;-61
2022/02/14 13:33:22;;;;;;;7.10;4.78;;;26.50;43.60;;;;;;6116697;28;81663;-63
2022/02/14 13:36:22;;;;;;;5.57;4.07;;;26.40;43.50;;;;;;6110886;28;80890;-62
2022/02/14 13:39:23;;;;;;;6.72;3.80;;;26.40;43.50;;;;;;6106450;28;80442;-62
2022/02/14 13:42:23;;;;;;;6.63;3.88;;;26.40;43.50;;;;;;6125270;28;80667;-62
2022/02/14 13:45:24;;;;;;;5.40;3.58;;;26.50;43.60;;;;;;6109571;28;81613;-62
2022/02/14 13:48:24;;;;;;;8.20;4.30;;;26.50;43.80;;;;;;6107114;28;82111;-61
2022/02/14 13:51:25;;;;;;;7.13;4.35;;;26.60;43.70;;;;;;6098753;28;81619;-63
2022/02/14 13:54:27;;;;;;;5.93;4.15;;;26.60;43.60;;;;;;6103229;28;80151;-62
2022/02/14 13:57:27;;;;;;;6.43;3.90;;;26.60;43.40;;;;;;6102926;28;82528;-61
2022/02/14 14:00:28;;;;;;;6.80;3.47;;;26.70;43.40;;;;;;6102354;28;81200;-62
2022/02/14 14:03:28;;;;;;;5.50;3.75;;;26.80;43.20;;;;;;6097220;28;81542;-62
2022/02/14 14:06:29;;;;;;;4.30;3.55;;;26.90;43.00;;;;;;6109728;28;81051;-63
2022/02/14 14:09:29;;;;;;;4.78;3.53;;;27.10;42.50;;;;;;6106394;28;80218;-62
2022/02/14 14:12:30;;;;;;;6.03;3.05;;;27.50;42.00;;;;;;6108426;28;82017;-63
2022/02/14 14:15:31;;;;;;;7.25;3.95;;;28.10;40.60;;;;;;6101844;28;80186;-64
2022/02/14 14:18:32;;;;;;;4.25;3.03;;;28.90;39.20;;;;;;6104123;28;80237;-64
2022/02/14 14:21:32;;;;;;;4.50;3.25;;;29.30;38.20;;;;;;6107329;28;80344;-64
2022/02/14 14:24:33;;;;;;;4.78;2.85;;;29.50;38.10;;;;;;6105634;28;81888;-64
2022/02/14 14:27:33;;;;;;;8.15;3.45;;;29.20;38.20;;;;;;6108662;28;80925;-62
2022/02/14 14:30:34;;;;;;;3.00;2.67;;;28.70;38.90;;;;;;6089655;28;81525;-64
2022/02/14 14:33:34;;;;;;;3.03;2.67;;;28.30;39.60;;;;;;6123095;28;80882;-63
2022/02/14 14:36:35;;;;;;;4.28;3.13;;;28.00;40.00;;;;;;6102939;28;81135;-62
2022/02/14 14:39:35;;;;;;;5.05;2.60;;;27.70;40.50;;;;;;6123633;28;80454;-62
2022/02/14 14:42:36;;;;;;;4.65;2.60;;;27.50;40.90;;;;;;6110360;28;81529;-64
2022/02/14 14:45:36;;;;;;;2.75;2.35;;;27.40;41.10;;;;;;6111188;28;80608;-63
2022/02/14 14:48:37;;;;;;;2.83;2.53;;;27.10;41.30;;;;;;6105018;28;80848;-63
2022/02/14 14:51:37;;;;;;;4.25;2.60;;;27.00;41.30;;;;;;6113950;28;80462;-63
2022/02/14 14:54:38;;;;;;;2.55;2.25;;;26.80;41.40;;;;;;6111245;28;80239;-64
2022/02/14 14:57:38;;;;;;;6.03;2.20;;;26.70;41.60;;;;;;6106892;28;80486;-63
2022/02/14 15:00:39;;;;;;;2.20;2.00;;;26.60;41.90;;;;;;6106639;28;81404;-63
2022/02/14 15:03:42;;;;;;;5.13;2.25;;;26.40;42.10;;;;;;6101545;28;81174;-63
2022/02/14 15:06:42;;;;;;;5.20;2.20;;;26.40;42.60;;;;;;6101105;28;80664;-64
2022/02/14 15:09:44;;;;;;;3.15;2.40;;;26.30;42.70;;;;;;6097352;28;82510;-64
2022/02/14 15:12:46;;;;;;;3.80;1.80;;;26.20;42.80;;;;;;6109514;28;81339;-63
2022/02/14 15:15:47;;;;;;;2.35;1.73;;;26.20;43.50;;;;;;6128546;28;80325;-63
2022/02/14 15:18:49;;;;;;;2.92;2.08;;;26.10;43.40;;;;;;6110143;28;81744;-63
2022/02/14 15:21:52;;;;;;;3.83;2.08;;;26.00;43.30;;;;;;6105027;28;80513;-64
2022/02/14 15:24:53;;;;;;;2.17;1.98;;;26.00;43.60;;;;;;6111888;28;80105;-63
2022/02/14 15:27:53;;;;;;;3.97;2.35;;;25.90;43.50;;;;;;6112829;28;80352;-63
2022/02/14 15:30:54;;;;;;;2.00;1.80;;;25.80;43.70;;;;;;6114664;28;81855;-64
2022/02/14 15:33:54;;;;;;;4.15;2.10;;;25.80;43.90;;;;;;6097861;28;81598;-63
2022/02/14 15:36:55;;;;;;;2.15;1.90;;;25.70;43.60;;;;;;6098938;28;82135;-62
2022/02/14 15:39:55;;;;;;;2.60;1.90;;;25.60;44.20;;;;;;6096252;28;81696;-63